sensor_id;sensor_type;location;lat;lon;timestamp;temperature;humidity
69823;SHT31;57119;52.516;13.508;2022-10-13T00:00:32;5.77;97.56
69823;SHT31;57119;52.516;13.508;2022-10-13T00:02:59;5.76;97.32
69823;SHT31;57119;52.516;13.508;2022-10-13T00:05:25;5.66;97.59
69823;SHT31;57119;52.516;13.508;2022-10-13T00:07:51;5.62;97.61
69823;SHT31;57119;52.516;13.508;2022-10-13T00:10:16;5.65;98.03
69823;SHT31;57119;52.516;13.508;2022-10-13T00:12:41;5.60;97.81
69823;SHT31;57119;52.516;13.508;2022-10-13T00:15:07;5.62;97.93
69823;SHT31;57119;52.516;13.508;2022-10-13T00:17:33;5.62;98.64
69823;SHT31;57119;52.516;13.508;2022-10-13T00:20:01;5.63;98.21
69823;SHT31;57119;52.516;13.508;2022-10-13T00:22:27;5.66;98.72
69823;SHT31;57119;52.516;13.508;2022-10-13T00:24:52;5.59;98.31
69823;SHT31;57119;52.516;13.508;2022-10-13T00:27:18;5.63;97.94
69823;SHT31;57119;52.516;13.508;2022-10-13T00:29:43;5.58;98.21
69823;SHT31;57119;52.516;13.508;2022-10-13T00:32:09;5.56;98.33
69823;SHT31;57119;52.516;13.508;2022-10-13T00:34:38;5.52;98.19
69823;SHT31;57119;52.516;13.508;2022-10-13T00:37:03;5.45;98.11
69823;SHT31;57119;52.516;13.508;2022-10-13T00:39:29;5.38;98.54
69823;SHT31;57119;52.516;13.508;2022-10-13T00:41:56;5.41;98.72
69823;SHT31;57119;52.516;13.508;2022-10-13T00:47:23;5.32;98.20
69823;SHT31;57119;52.516;13.508;2022-10-13T00:49:49;5.35;97.91
69823;SHT31;57119;52.516;13.508;2022-10-13T00:52:16;5.36;97.87
69823;SHT31;57119;52.516;13.508;2022-10-13T00:54:42;5.29;98.19
69823;SHT31;57119;52.516;13.508;2022-10-13T00:57:09;5.22;97.93
69823;SHT31;57119;52.516;13.508;2022-10-13T00:59:34;5.25;98.02
69823;SHT31;57119;52.516;13.508;2022-10-13T01:02:01;5.25;98.16
69823;SHT31;57119;52.516;13.508;2022-10-13T01:04:35;5.18;99.32
69823;SHT31;57119;52.516;13.508;2022-10-13T01:07:02;5.20;98.88
69823;SHT31;57119;52.516;13.508;2022-10-13T01:09:27;5.21;99.35
69823;SHT31;57119;52.516;13.508;2022-10-13T01:12:24;5.21;98.96
69823;SHT31;57119;52.516;13.508;2022-10-13T01:15:02;5.21;98.95
69823;SHT31;57119;52.516;13.508;2022-10-13T01:20:34;5.20;98.50
69823;SHT31;57119;52.516;13.508;2022-10-13T01:29:26;5.14;98.71
69823;SHT31;57119;52.516;13.508;2022-10-13T01:39:51;5.10;98.21
69823;SHT31;57119;52.516;13.508;2022-10-13T01:42:33;5.11;98.04
69823;SHT31;57119;52.516;13.508;2022-10-13T01:45:00;5.07;97.81
69823;SHT31;57119;52.516;13.508;2022-10-13T01:47:29;5.01;98.08
69823;SHT31;57119;52.516;13.508;2022-10-13T01:49:55;4.97;97.94
69823;SHT31;57119;52.516;13.508;2022-10-13T01:52:24;4.85;98.32
69823;SHT31;57119;52.516;13.508;2022-10-13T01:54:52;4.93;98.30
69823;SHT31;57119;52.516;13.508;2022-10-13T01:57:35;4.91;97.94
69823;SHT31;57119;52.516;13.508;2022-10-13T02:00:17;4.93;97.95
69823;SHT31;57119;52.516;13.508;2022-10-13T02:08:22;4.97;97.69
69823;SHT31;57119;52.516;13.508;2022-10-13T02:10:55;5.08;97.66
69823;SHT31;57119;52.516;13.508;2022-10-13T02:13:25;5.17;97.86
69823;SHT31;57119;52.516;13.508;2022-10-13T02:15:53;5.34;98.12
69823;SHT31;57119;52.516;13.508;2022-10-13T02:18:26;5.48;98.52
69823;SHT31;57119;52.516;13.508;2022-10-13T02:20:53;5.58;98.39
69823;SHT31;57119;52.516;13.508;2022-10-13T02:23:19;5.52;99.08
69823;SHT31;57119;52.516;13.508;2022-10-13T02:25:46;5.60;99.16
69823;SHT31;57119;52.516;13.508;2022-10-13T02:28:13;5.60;99.11
69823;SHT31;57119;52.516;13.508;2022-10-13T02:30:39;5.60;99.03
69823;SHT31;57119;52.516;13.508;2022-10-13T02:33:05;5.70;99.24
69823;SHT31;57119;52.516;13.508;2022-10-13T02:35:31;5.59;99.12
69823;SHT31;57119;52.516;13.508;2022-10-13T02:37:57;5.69;98.84
69823;SHT31;57119;52.516;13.508;2022-10-13T02:40:23;5.62;98.92
69823;SHT31;57119;52.516;13.508;2022-10-13T02:42:48;5.56;98.74
69823;SHT31;57119;52.516;13.508;2022-10-13T02:45:16;5.48;98.96
69823;SHT31;57119;52.516;13.508;2022-10-13T02:47:41;5.42;99.02
69823;SHT31;57119;52.516;13.508;2022-10-13T02:50:07;5.42;98.74
69823;SHT31;57119;52.516;13.508;2022-10-13T02:52:33;5.36;98.79
69823;SHT31;57119;52.516;13.508;2022-10-13T02:54:58;5.32;98.88
69823;SHT31;57119;52.516;13.508;2022-10-13T02:57:24;5.24;99.28
69823;SHT31;57119;52.516;13.508;2022-10-13T02:59:49;5.20;99.26
69823;SHT31;57119;52.516;13.508;2022-10-13T03:02:15;5.20;99.42
69823;SHT31;57119;52.516;13.508;2022-10-13T03:04:40;5.07;99.41
69823;SHT31;57119;52.516;13.508;2022-10-13T03:07:06;5.00;99.66
69823;SHT31;57119;52.516;13.508;2022-10-13T03:09:31;4.91;99.49
69823;SHT31;57119;52.516;13.508;2022-10-13T03:11:56;4.85;99.99
69823;SHT31;57119;52.516;13.508;2022-10-13T03:14:22;4.80;99.99
69823;SHT31;57119;52.516;13.508;2022-10-13T03:16:48;4.81;99.99
69823;SHT31;57119;52.516;13.508;2022-10-13T03:19:13;4.76;99.99
69823;SHT31;57119;52.516;13.508;2022-10-13T03:21:39;4.79;99.99
69823;SHT31;57119;52.516;13.508;2022-10-13T03:24:05;4.77;99.76
69823;SHT31;57119;52.516;13.508;2022-10-13T03:26:31;4.77;99.92
69823;SHT31;57119;52.516;13.508;2022-10-13T03:28:57;4.64;99.99
69823;SHT31;57119;52.516;13.508;2022-10-13T03:31:22;4.63;99.99
69823;SHT31;57119;52.516;13.508;2022-10-13T03:33:48;4.72;99.99
69823;SHT31;57119;52.516;13.508;2022-10-13T03:36:13;4.64;99.99
69823;SHT31;57119;52.516;13.508;2022-10-13T03:38:39;4.67;99.99
69823;SHT31;57119;52.516;13.508;2022-10-13T03:41:12;4.60;99.99
69823;SHT31;57119;52.516;13.508;2022-10-13T03:43:39;4.72;99.99
69823;SHT31;57119;52.516;13.508;2022-10-13T03:46:05;4.72;99.99
69823;SHT31;57119;52.516;13.508;2022-10-13T03:48:33;4.79;99.99
69823;SHT31;57119;52.516;13.508;2022-10-13T03:50:59;4.83;99.99
69823;SHT31;57119;52.516;13.508;2022-10-13T03:53:24;4.81;99.99
69823;SHT31;57119;52.516;13.508;2022-10-13T03:55:52;4.79;99.99
69823;SHT31;57119;52.516;13.508;2022-10-13T03:58:18;4.72;99.99
69823;SHT31;57119;52.516;13.508;2022-10-13T04:00:43;4.72;99.99
69823;SHT31;57119;52.516;13.508;2022-10-13T04:03:09;4.69;99.99
69823;SHT31;57119;52.516;13.508;2022-10-13T04:05:35;4.70;99.99
69823;SHT31;57119;52.516;13.508;2022-10-13T04:08:00;4.87;99.99
69823;SHT31;57119;52.516;13.508;2022-10-13T04:10:26;4.98;99.99
69823;SHT31;57119;52.516;13.508;2022-10-13T04:12:51;4.91;99.99
69823;SHT31;57119;52.516;13.508;2022-10-13T04:15:16;4.97;99.99
69823;SHT31;57119;52.516;13.508;2022-10-13T04:17:42;5.10;99.99
69823;SHT31;57119;52.516;13.508;2022-10-13T04:20:07;5.14;99.99
69823;SHT31;57119;52.516;13.508;2022-10-13T04:22:33;5.27;99.99
69823;SHT31;57119;52.516;13.508;2022-10-13T04:24:58;5.24;99.99
69823;SHT31;57119;52.516;13.508;2022-10-13T04:27:24;5.35;99.99
69823;SHT31;57119;52.516;13.508;2022-10-13T04:29:51;5.36;99.99
69823;SHT31;57119;52.516;13.508;2022-10-13T04:32:16;5.50;99.99
69823;SHT31;57119;52.516;13.508;2022-10-13T04:34:41;5.48;99.99
69823;SHT31;57119;52.516;13.508;2022-10-13T04:37:07;5.42;99.99
69823;SHT31;57119;52.516;13.508;2022-10-13T04:39:32;5.49;99.99
69823;SHT31;57119;52.516;13.508;2022-10-13T04:41:57;5.60;99.99
69823;SHT31;57119;52.516;13.508;2022-10-13T04:44:23;5.65;99.99
69823;SHT31;57119;52.516;13.508;2022-10-13T04:46:48;5.70;99.99
69823;SHT31;57119;52.516;13.508;2022-10-13T04:49:15;5.67;99.99
69823;SHT31;57119;52.516;13.508;2022-10-13T04:51:40;5.63;99.99
69823;SHT31;57119;52.516;13.508;2022-10-13T04:54:06;5.67;99.99
69823;SHT31;57119;52.516;13.508;2022-10-13T04:56:31;5.65;99.99
69823;SHT31;57119;52.516;13.508;2022-10-13T04:58:57;5.71;99.99
69823;SHT31;57119;52.516;13.508;2022-10-13T05:01:24;5.63;99.99
69823;SHT31;57119;52.516;13.508;2022-10-13T05:03:51;5.56;99.99
69823;SHT31;57119;52.516;13.508;2022-10-13T05:06:19;5.63;99.99
69823;SHT31;57119;52.516;13.508;2022-10-13T05:08:44;5.58;99.99
69823;SHT31;57119;52.516;13.508;2022-10-13T05:11:09;5.59;99.99
69823;SHT31;57119;52.516;13.508;2022-10-13T05:13:35;5.67;99.99
69823;SHT31;57119;52.516;13.508;2022-10-13T05:16:08;5.71;99.99
69823;SHT31;57119;52.516;13.508;2022-10-13T05:18:34;5.66;99.99
69823;SHT31;57119;52.516;13.508;2022-10-13T05:21:07;5.69;99.99
69823;SHT31;57119;52.516;13.508;2022-10-13T05:23:32;5.86;99.99
69823;SHT31;57119;52.516;13.508;2022-10-13T05:26:04;5.85;99.99
69823;SHT31;57119;52.516;13.508;2022-10-13T05:28:30;5.86;99.99
69823;SHT31;57119;52.516;13.508;2022-10-13T05:30:55;5.90;99.99
69823;SHT31;57119;52.516;13.508;2022-10-13T05:33:21;6.01;99.99
69823;SHT31;57119;52.516;13.508;2022-10-13T05:35:46;6.07;99.99
69823;SHT31;57119;52.516;13.508;2022-10-13T05:38:11;6.04;99.99
69823;SHT31;57119;52.516;13.508;2022-10-13T05:40:37;6.08;99.99
69823;SHT31;57119;52.516;13.508;2022-10-13T05:43:02;6.20;99.77
69823;SHT31;57119;52.516;13.508;2022-10-13T05:45:29;6.20;99.75
69823;SHT31;57119;52.516;13.508;2022-10-13T05:47:56;6.24;99.63
69823;SHT31;57119;52.516;13.508;2022-10-13T05:50:21;6.28;99.33
69823;SHT31;57119;52.516;13.508;2022-10-13T05:52:46;6.32;99.16
69823;SHT31;57119;52.516;13.508;2022-10-13T05:55:13;6.39;99.42
69823;SHT31;57119;52.516;13.508;2022-10-13T05:57:42;6.45;99.09
69823;SHT31;57119;52.516;13.508;2022-10-13T06:00:13;6.53;98.79
69823;SHT31;57119;52.516;13.508;2022-10-13T06:02:52;6.48;99.14
69823;SHT31;57119;52.516;13.508;2022-10-13T06:05:20;6.44;99.64
69823;SHT31;57119;52.516;13.508;2022-10-13T06:07:47;6.44;99.66
69823;SHT31;57119;52.516;13.508;2022-10-13T06:10:13;6.48;99.51
69823;SHT31;57119;52.516;13.508;2022-10-13T06:12:38;6.45;99.73
69823;SHT31;57119;52.516;13.508;2022-10-13T06:15:04;6.56;99.52
69823;SHT31;57119;52.516;13.508;2022-10-13T06:17:30;6.41;99.64
69823;SHT31;57119;52.516;13.508;2022-10-13T06:19:55;6.44;99.71
69823;SHT31;57119;52.516;13.508;2022-10-13T06:22:21;6.41;99.71
69823;SHT31;57119;52.516;13.508;2022-10-13T06:24:46;6.45;99.84
69823;SHT31;57119;52.516;13.508;2022-10-13T06:27:12;6.38;99.99
69823;SHT31;57119;52.516;13.508;2022-10-13T06:29:37;6.41;99.92
69823;SHT31;57119;52.516;13.508;2022-10-13T06:32:05;6.53;99.91
69823;SHT31;57119;52.516;13.508;2022-10-13T06:34:31;6.65;99.60
69823;SHT31;57119;52.516;13.508;2022-10-13T06:36:57;6.73;99.06
69823;SHT31;57119;52.516;13.508;2022-10-13T06:39:22;6.89;99.09
69823;SHT31;57119;52.516;13.508;2022-10-13T06:41:48;6.93;98.80
69823;SHT31;57119;52.516;13.508;2022-10-13T06:44:14;7.04;98.52
69823;SHT31;57119;52.516;13.508;2022-10-13T06:46:39;6.99;98.28
69823;SHT31;57119;52.516;13.508;2022-10-13T06:49:04;7.07;98.28
69823;SHT31;57119;52.516;13.508;2022-10-13T06:51:30;7.17;97.99
69823;SHT31;57119;52.516;13.508;2022-10-13T06:53:55;7.13;98.02
69823;SHT31;57119;52.516;13.508;2022-10-13T06:56:21;7.04;98.08
69823;SHT31;57119;52.516;13.508;2022-10-13T06:58:49;7.01;98.46
69823;SHT31;57119;52.516;13.508;2022-10-13T07:01:15;7.20;97.99
69823;SHT31;57119;52.516;13.508;2022-10-13T07:03:40;7.41;97.64
69823;SHT31;57119;52.516;13.508;2022-10-13T07:06:06;7.61;97.24
69823;SHT31;57119;52.516;13.508;2022-10-13T07:08:33;7.92;96.77
69823;SHT31;57119;52.516;13.508;2022-10-13T07:11:05;8.17;95.67
69823;SHT31;57119;52.516;13.508;2022-10-13T07:13:30;8.20;94.83
69823;SHT31;57119;52.516;13.508;2022-10-13T07:15:55;7.99;96.06
69823;SHT31;57119;52.516;13.508;2022-10-13T07:18:20;7.96;96.05
69823;SHT31;57119;52.516;13.508;2022-10-13T07:20:46;8.23;94.88
69823;SHT31;57119;52.516;13.508;2022-10-13T07:23:14;8.51;94.11
69823;SHT31;57119;52.516;13.508;2022-10-13T07:25:39;9.44;91.24
69823;SHT31;57119;52.516;13.508;2022-10-13T07:28:05;9.29;91.73
69823;SHT31;57119;52.516;13.508;2022-10-13T07:30:30;9.64;91.10
69823;SHT31;57119;52.516;13.508;2022-10-13T07:32:55;10.57;88.28
69823;SHT31;57119;52.516;13.508;2022-10-13T07:35:21;10.40;88.96
69823;SHT31;57119;52.516;13.508;2022-10-13T07:37:51;11.66;85.60
69823;SHT31;57119;52.516;13.508;2022-10-13T07:40:17;12.27;82.53
69823;SHT31;57119;52.516;13.508;2022-10-13T07:42:42;13.86;78.27
69823;SHT31;57119;52.516;13.508;2022-10-13T07:45:08;14.50;74.76
69823;SHT31;57119;52.516;13.508;2022-10-13T07:47:34;12.60;78.82
69823;SHT31;57119;52.516;13.508;2022-10-13T07:50:02;10.90;84.29
69823;SHT31;57119;52.516;13.508;2022-10-13T07:52:27;10.61;85.56
69823;SHT31;57119;52.516;13.508;2022-10-13T07:54:53;10.73;86.48
69823;SHT31;57119;52.516;13.508;2022-10-13T07:57:22;12.22;82.46
69823;SHT31;57119;52.516;13.508;2022-10-13T07:59:49;13.66;77.38
69823;SHT31;57119;52.516;13.508;2022-10-13T08:02:15;14.99;73.63
69823;SHT31;57119;52.516;13.508;2022-10-13T08:04:40;15.95;70.71
69823;SHT31;57119;52.516;13.508;2022-10-13T08:07:05;14.60;73.66
69823;SHT31;57119;52.516;13.508;2022-10-13T08:09:31;15.54;70.97
69823;SHT31;57119;52.516;13.508;2022-10-13T08:11:57;14.84;73.70
69823;SHT31;57119;52.516;13.508;2022-10-13T08:14:22;16.63;69.48
69823;SHT31;57119;52.516;13.508;2022-10-13T08:16:47;15.51;70.25
69823;SHT31;57119;52.516;13.508;2022-10-13T08:19:15;16.08;70.27
69823;SHT31;57119;52.516;13.508;2022-10-13T08:21:41;17.42;66.85
69823;SHT31;57119;52.516;13.508;2022-10-13T08:24:09;17.93;64.91
69823;SHT31;57119;52.516;13.508;2022-10-13T08:26:35;19.07;62.95
69823;SHT31;57119;52.516;13.508;2022-10-13T08:29:00;18.86;63.26
69823;SHT31;57119;52.516;13.508;2022-10-13T08:31:26;16.48;68.12
69823;SHT31;57119;52.516;13.508;2022-10-13T08:33:51;16.02;69.20
69823;SHT31;57119;52.516;13.508;2022-10-13T08:36:17;15.12;71.83
69823;SHT31;57119;52.516;13.508;2022-10-13T08:38:43;15.13;72.05
69823;SHT31;57119;52.516;13.508;2022-10-13T08:41:16;15.10;73.42
69823;SHT31;57119;52.516;13.508;2022-10-13T08:43:57;15.51;71.78
69823;SHT31;57119;52.516;13.508;2022-10-13T08:46:38;16.01;70.73
69823;SHT31;57119;52.516;13.508;2022-10-13T08:49:07;15.58;72.10
69823;SHT31;57119;52.516;13.508;2022-10-13T08:51:33;15.67;71.82
69823;SHT31;57119;52.516;13.508;2022-10-13T08:53:58;15.63;72.02
69823;SHT31;57119;52.516;13.508;2022-10-13T08:56:27;16.43;70.33
69823;SHT31;57119;52.516;13.508;2022-10-13T08:58:55;16.81;69.67
69823;SHT31;57119;52.516;13.508;2022-10-13T09:01:29;16.71;70.09
69823;SHT31;57119;52.516;13.508;2022-10-13T09:04:37;15.92;71.22
69823;SHT31;57119;52.516;13.508;2022-10-13T09:09:33;15.27;74.66
69823;SHT31;57119;52.516;13.508;2022-10-13T09:11:59;15.67;72.72
69823;SHT31;57119;52.516;13.508;2022-10-13T09:14:27;15.92;73.03
69823;SHT31;57119;52.516;13.508;2022-10-13T09:16:55;16.12;72.59
69823;SHT31;57119;52.516;13.508;2022-10-13T09:19:27;15.02;75.26
69823;SHT31;57119;52.516;13.508;2022-10-13T09:22:12;15.09;75.77
69823;SHT31;57119;52.516;13.508;2022-10-13T09:24:38;15.26;75.52
69823;SHT31;57119;52.516;13.508;2022-10-13T09:27:14;15.74;74.04
69823;SHT31;57119;52.516;13.508;2022-10-13T09:29:42;14.57;77.29
69823;SHT31;57119;52.516;13.508;2022-10-13T09:32:20;14.95;76.89
69823;SHT31;57119;52.516;13.508;2022-10-13T09:34:48;14.71;77.04
69823;SHT31;57119;52.516;13.508;2022-10-13T09:37:22;14.85;77.51
69823;SHT31;57119;52.516;13.508;2022-10-13T09:42:35;14.42;78.72
69823;SHT31;57119;52.516;13.508;2022-10-13T09:45:15;14.75;78.25
69823;SHT31;57119;52.516;13.508;2022-10-13T09:47:48;14.77;77.12
69823;SHT31;57119;52.516;13.508;2022-10-13T09:50:19;15.26;76.76
69823;SHT31;57119;52.516;13.508;2022-10-13T09:52:47;14.42;78.63
69823;SHT31;57119;52.516;13.508;2022-10-13T09:55:31;15.42;76.85
69823;SHT31;57119;52.516;13.508;2022-10-13T09:58:03;15.58;76.22
69823;SHT31;57119;52.516;13.508;2022-10-13T10:00:31;15.39;76.86
69823;SHT31;57119;52.516;13.508;2022-10-13T10:03:04;15.42;76.33
69823;SHT31;57119;52.516;13.508;2022-10-13T10:05:50;15.84;75.64
69823;SHT31;57119;52.516;13.508;2022-10-13T10:11:17;15.68;76.08
69823;SHT31;57119;52.516;13.508;2022-10-13T10:13:43;16.04;74.98
69823;SHT31;57119;52.516;13.508;2022-10-13T10:16:19;15.91;75.22
69823;SHT31;57119;52.516;13.508;2022-10-13T10:24:51;15.70;76.74
69823;SHT31;57119;52.516;13.508;2022-10-13T10:29:53;16.56;74.76
69823;SHT31;57119;52.516;13.508;2022-10-13T10:35:35;15.88;76.82
69823;SHT31;57119;52.516;13.508;2022-10-13T10:40:45;16.36;75.39
69823;SHT31;57119;52.516;13.508;2022-10-13T10:43:31;16.32;75.80
69823;SHT31;57119;52.516;13.508;2022-10-13T10:45:58;17.28;73.28
69823;SHT31;57119;52.516;13.508;2022-10-13T10:48:37;17.94;71.96
69823;SHT31;57119;52.516;13.508;2022-10-13T10:51:05;18.89;68.84
69823;SHT31;57119;52.516;13.508;2022-10-13T10:56:28;18.98;69.11
69823;SHT31;57119;52.516;13.508;2022-10-13T10:59:08;18.59;69.21
69823;SHT31;57119;52.516;13.508;2022-10-13T11:01:52;18.30;70.30
69823;SHT31;57119;52.516;13.508;2022-10-13T11:04:45;18.44;70.21
69823;SHT31;57119;52.516;13.508;2022-10-13T11:14:47;17.86;72.06
69823;SHT31;57119;52.516;13.508;2022-10-13T11:17:31;18.31;70.97
69823;SHT31;57119;52.516;13.508;2022-10-13T11:19:58;18.08;72.09
69823;SHT31;57119;52.516;13.508;2022-10-13T11:22:25;19.12;69.83
69823;SHT31;57119;52.516;13.508;2022-10-13T11:25:03;19.26;69.07
69823;SHT31;57119;52.516;13.508;2022-10-13T11:27:46;19.06;68.85
69823;SHT31;57119;52.516;13.508;2022-10-13T11:30:44;20.13;67.73
69823;SHT31;57119;52.516;13.508;2022-10-13T11:33:31;22.32;60.94
69823;SHT31;57119;52.516;13.508;2022-10-13T11:35:56;23.11;60.14
69823;SHT31;57119;52.516;13.508;2022-10-13T11:38:28;22.93;59.73
69823;SHT31;57119;52.516;13.508;2022-10-13T11:41:09;22.96;58.73
69823;SHT31;57119;52.516;13.508;2022-10-13T11:49:03;23.37;58.18
69823;SHT31;57119;52.516;13.508;2022-10-13T11:52:08;21.77;61.83
69823;SHT31;57119;52.516;13.508;2022-10-13T11:54:48;21.45;62.07
69823;SHT31;57119;52.516;13.508;2022-10-13T11:57:17;20.68;64.34
69823;SHT31;57119;52.516;13.508;2022-10-13T11:59:45;19.47;66.48
69823;SHT31;57119;52.516;13.508;2022-10-13T12:02:15;20.80;64.40
69823;SHT31;57119;52.516;13.508;2022-10-13T12:04:57;20.65;64.12
69823;SHT31;57119;52.516;13.508;2022-10-13T12:07:24;22.18;61.64
69823;SHT31;57119;52.516;13.508;2022-10-13T12:09:54;23.00;58.85
69823;SHT31;57119;52.516;13.508;2022-10-13T12:12:22;21.12;62.39
69823;SHT31;57119;52.516;13.508;2022-10-13T12:14:50;21.08;62.27
69823;SHT31;57119;52.516;13.508;2022-10-13T12:19:43;20.70;62.51
69823;SHT31;57119;52.516;13.508;2022-10-13T12:22:13;20.30;63.09
69823;SHT31;57119;52.516;13.508;2022-10-13T12:24:38;19.46;65.60
69823;SHT31;57119;52.516;13.508;2022-10-13T12:27:20;19.28;65.82
69823;SHT31;57119;52.516;13.508;2022-10-13T12:29:46;19.46;66.05
69823;SHT31;57119;52.516;13.508;2022-10-13T12:32:28;19.28;65.27
69823;SHT31;57119;52.516;13.508;2022-10-13T12:34:54;19.54;65.56
69823;SHT31;57119;52.516;13.508;2022-10-13T12:37:29;20.04;63.45
69823;SHT31;57119;52.516;13.508;2022-10-13T12:39:58;20.27;61.39
69823;SHT31;57119;52.516;13.508;2022-10-13T12:42:31;20.09;61.86
69823;SHT31;57119;52.516;13.508;2022-10-13T12:44:58;19.20;63.88
69823;SHT31;57119;52.516;13.508;2022-10-13T12:50:21;19.68;63.20
69823;SHT31;57119;52.516;13.508;2022-10-13T12:52:48;19.53;63.94
69823;SHT31;57119;52.516;13.508;2022-10-13T12:55:17;18.95;65.22
69823;SHT31;57119;52.516;13.508;2022-10-13T12:57:44;18.47;66.74
69823;SHT31;57119;52.516;13.508;2022-10-13T13:02:54;18.25;67.43
69823;SHT31;57119;52.516;13.508;2022-10-13T13:07:57;17.61;69.15
69823;SHT31;57119;52.516;13.508;2022-10-13T13:10:23;17.75;68.79
69823;SHT31;57119;52.516;13.508;2022-10-13T13:12:50;17.69;68.97
69823;SHT31;57119;52.516;13.508;2022-10-13T13:15:36;17.63;69.32
69823;SHT31;57119;52.516;13.508;2022-10-13T13:18:28;17.45;70.05
69823;SHT31;57119;52.516;13.508;2022-10-13T13:20:54;17.50;69.78
69823;SHT31;57119;52.516;13.508;2022-10-13T13:23:20;17.53;70.01
69823;SHT31;57119;52.516;13.508;2022-10-13T13:25:46;17.59;69.53
69823;SHT31;57119;52.516;13.508;2022-10-13T13:28:13;17.66;69.12
69823;SHT31;57119;52.516;13.508;2022-10-13T13:30:39;17.46;69.72
69823;SHT31;57119;52.516;13.508;2022-10-13T13:33:05;17.27;70.17
69823;SHT31;57119;52.516;13.508;2022-10-13T13:35:30;17.29;70.38
69823;SHT31;57119;52.516;13.508;2022-10-13T13:37:55;17.27;70.43
69823;SHT31;57119;52.516;13.508;2022-10-13T13:40:26;17.38;70.30
69823;SHT31;57119;52.516;13.508;2022-10-13T13:42:52;17.32;70.49
69823;SHT31;57119;52.516;13.508;2022-10-13T13:45:21;17.38;70.67
69823;SHT31;57119;52.516;13.508;2022-10-13T13:47:47;17.31;70.95
69823;SHT31;57119;52.516;13.508;2022-10-13T13:50:18;17.36;70.45
69823;SHT31;57119;52.516;13.508;2022-10-13T13:52:44;17.36;70.65
69823;SHT31;57119;52.516;13.508;2022-10-13T13:55:10;17.14;71.31
69823;SHT31;57119;52.516;13.508;2022-10-13T13:57:35;17.31;71.28
69823;SHT31;57119;52.516;13.508;2022-10-13T14:00:01;17.24;71.17
69823;SHT31;57119;52.516;13.508;2022-10-13T14:02:26;17.46;70.86
69823;SHT31;57119;52.516;13.508;2022-10-13T14:04:52;17.49;71.03
69823;SHT31;57119;52.516;13.508;2022-10-13T14:07:18;17.52;70.79
69823;SHT31;57119;52.516;13.508;2022-10-13T14:09:43;17.73;70.41
69823;SHT31;57119;52.516;13.508;2022-10-13T14:12:09;18.03;69.65
69823;SHT31;57119;52.516;13.508;2022-10-13T14:14:34;19.35;66.41
69823;SHT31;57119;52.516;13.508;2022-10-13T14:17:00;19.88;64.48
69823;SHT31;57119;52.516;13.508;2022-10-13T14:19:26;20.44;64.33
69823;SHT31;57119;52.516;13.508;2022-10-13T14:21:52;19.71;65.16
69823;SHT31;57119;52.516;13.508;2022-10-13T14:24:18;19.48;66.36
69823;SHT31;57119;52.516;13.508;2022-10-13T14:26:43;19.04;67.08
69823;SHT31;57119;52.516;13.508;2022-10-13T14:29:09;18.64;67.89
69823;SHT31;57119;52.516;13.508;2022-10-13T14:31:34;18.41;68.95
69823;SHT31;57119;52.516;13.508;2022-10-13T14:34:00;18.25;69.27
69823;SHT31;57119;52.516;13.508;2022-10-13T14:36:25;18.15;69.29
69823;SHT31;57119;52.516;13.508;2022-10-13T14:38:50;17.87;69.60
69823;SHT31;57119;52.516;13.508;2022-10-13T14:41:16;17.50;70.62
69823;SHT31;57119;52.516;13.508;2022-10-13T14:43:42;17.32;70.11
69823;SHT31;57119;52.516;13.508;2022-10-13T14:46:08;17.40;69.75
69823;SHT31;57119;52.516;13.508;2022-10-13T14:48:34;17.35;70.06
69823;SHT31;57119;52.516;13.508;2022-10-13T14:51:07;17.29;70.32
69823;SHT31;57119;52.516;13.508;2022-10-13T14:53:34;17.58;69.31
69823;SHT31;57119;52.516;13.508;2022-10-13T14:56:00;18.79;66.98
69823;SHT31;57119;52.516;13.508;2022-10-13T14:58:26;19.90;64.01
69823;SHT31;57119;52.516;13.508;2022-10-13T15:00:51;18.52;66.37
69823;SHT31;57119;52.516;13.508;2022-10-13T15:03:17;18.21;67.11
69823;SHT31;57119;52.516;13.508;2022-10-13T15:05:43;17.98;68.52
69823;SHT31;57119;52.516;13.508;2022-10-13T15:08:08;17.77;69.08
69823;SHT31;57119;52.516;13.508;2022-10-13T15:10:34;17.61;70.21
69823;SHT31;57119;52.516;13.508;2022-10-13T15:12:59;17.18;70.56
69823;SHT31;57119;52.516;13.508;2022-10-13T15:15:24;17.10;71.11
69823;SHT31;57119;52.516;13.508;2022-10-13T15:17:49;17.04;71.52
69823;SHT31;57119;52.516;13.508;2022-10-13T15:20:15;16.66;72.35
69823;SHT31;57119;52.516;13.508;2022-10-13T15:22:40;16.49;72.50
69823;SHT31;57119;52.516;13.508;2022-10-13T15:25:06;16.34;73.01
69823;SHT31;57119;52.516;13.508;2022-10-13T15:27:34;16.11;73.67
69823;SHT31;57119;52.516;13.508;2022-10-13T15:29:59;15.88;74.21
69823;SHT31;57119;52.516;13.508;2022-10-13T15:32:24;15.65;75.55
69823;SHT31;57119;52.516;13.508;2022-10-13T15:34:50;15.58;75.33
69823;SHT31;57119;52.516;13.508;2022-10-13T15:37:15;15.53;75.56
69823;SHT31;57119;52.516;13.508;2022-10-13T15:39:40;15.37;76.08
69823;SHT31;57119;52.516;13.508;2022-10-13T15:42:06;15.13;78.30
69823;SHT31;57119;52.516;13.508;2022-10-13T15:44:31;14.88;78.93
69823;SHT31;57119;52.516;13.508;2022-10-13T15:46:57;14.68;80.63
69823;SHT31;57119;52.516;13.508;2022-10-13T15:49:23;14.54;80.86
69823;SHT31;57119;52.516;13.508;2022-10-13T15:51:49;14.27;82.67
69823;SHT31;57119;52.516;13.508;2022-10-13T15:54:15;14.05;83.83
69823;SHT31;57119;52.516;13.508;2022-10-13T15:56:41;13.82;84.74
69823;SHT31;57119;52.516;13.508;2022-10-13T15:59:06;13.68;85.44
69823;SHT31;57119;52.516;13.508;2022-10-13T16:01:31;13.57;85.27
69823;SHT31;57119;52.516;13.508;2022-10-13T16:03:57;13.47;86.12
69823;SHT31;57119;52.516;13.508;2022-10-13T16:06:22;13.28;86.74
69823;SHT31;57119;52.516;13.508;2022-10-13T16:08:48;13.24;86.74
69823;SHT31;57119;52.516;13.508;2022-10-13T16:11:15;13.13;87.06
69823;SHT31;57119;52.516;13.508;2022-10-13T16:13:47;13.06;87.62
69823;SHT31;57119;52.516;13.508;2022-10-13T16:16:13;12.93;88.87
69823;SHT31;57119;52.516;13.508;2022-10-13T16:18:39;12.79;89.54
69823;SHT31;57119;52.516;13.508;2022-10-13T16:21:19;12.77;89.62
69823;SHT31;57119;52.516;13.508;2022-10-13T16:23:46;12.70;89.85
69823;SHT31;57119;52.516;13.508;2022-10-13T16:26:11;12.63;90.06
69823;SHT31;57119;52.516;13.508;2022-10-13T16:28:37;12.56;90.63
69823;SHT31;57119;52.516;13.508;2022-10-13T16:31:07;12.49;90.51
69823;SHT31;57119;52.516;13.508;2022-10-13T16:33:34;12.42;90.96
69823;SHT31;57119;52.516;13.508;2022-10-13T16:36:11;12.31;91.14
69823;SHT31;57119;52.516;13.508;2022-10-13T16:38:37;12.24;91.41
69823;SHT31;57119;52.516;13.508;2022-10-13T16:41:03;12.13;91.38
69823;SHT31;57119;52.516;13.508;2022-10-13T16:43:29;12.00;91.78